Latest Weather Observations for Dum In Mirrie

IDD60801

Issued at 10:11 pm CST Sunday 21 July 2019 (issued every 10 minutes, with the page automatically refreshed every 10 minutes)

About weather observations | Map of weather stations | Latest weather observations for NT | Other Formats
Station Details ID: 014277 Name: DUM IN MIRRIE AIRSTRIP Lat: -12.63 Lon: 130.37 Height: 3.5 m
Data from the previous 72 hours. | See also: Recent months at Dum In Mirrie
Date/Time
CST
Temp
°C
App
Temp
°C
Dew
Point
°C
Rel
Hum
%
Delta-T
°C
Wind Press
QNH
hPa
Press
MSL
hPa
Rain since
9am
mm
Dir  Spd
km/h
Gust
km/h
Spd
kts
Gust
kts
21/10:00pm 19.2 21.6 18.7 97 0.3 SW 4 6 2 3 1011.9 1011.9 0.0
21/09:30pm 19.2 22.2 18.4 95 0.5 CALM 0 0 0 0 1011.7 1011.7 0.0
21/09:00pm 19.6 22.5 18.1 91 0.9 CALM 0 0 0 0 1011.7 1011.7 0.0
21/08:30pm 20.9 23.9 18.5 86 1.5 CALM 0 0 0 0 1011.6 1011.6 0.0
21/08:00pm 21.9 24.8 19.8 88 1.3 WSW 4 7 2 4 1011.3 1011.3 0.0
21/07:30pm 21.6 24.3 18.6 83 1.9 NW 2 4 1 2 1011.0 1011.0 0.0
21/07:00pm 23.1 26.2 19.5 80 2.3 NW 2 6 1 3 1010.8 1010.8 0.0
21/06:30pm 24.4 27.6 19.7 75 3.0 W 2 7 1 4 1010.4 1010.4 0.0
21/06:00pm 25.5 28.3 19.6 70 3.8 W 4 9 2 5 1010.2 1010.2 0.0
21/05:30pm 26.0 28.5 19.9 69 4.0 W 6 13 3 7 1010.2 1010.2 0.0
21/05:00pm 26.9 29.4 19.8 65 4.6 W 6 13 3 7 1010.2 1010.2 0.0
21/04:30pm 26.9 28.6 19.3 63 4.9 W 9 15 5 8 1010.4 1010.4 0.0
21/04:00pm 26.5 28.4 18.9 63 4.9 WNW 7 13 4 7 1010.2 1010.2 0.0
21/03:30pm 26.6 28.1 19.0 63 4.9 WNW 9 17 5 9 1010.4 1010.4 0.0
21/03:00pm 27.0 28.6 19.1 62 5.1 WNW 9 15 5 8 1010.8 1010.8 0.0
21/02:30pm 26.8 28.4 19.2 63 4.9 WNW 9 15 5 8 1011.1 1011.1 0.0
21/02:00pm 26.7 28.3 19.1 63 4.9 NW 9 17 5 9 1011.6 1011.6 0.0
21/01:30pm 26.8 28.7 19.7 65 4.6 NW 9 17 5 9 1012.2 1012.2 0.0
21/01:00pm 27.4 29.8 20.0 64 4.8 WNW 7 13 4 7 1012.6 1012.6 0.0
21/12:30pm 27.7 30.0 19.8 62 5.1 NNW 7 13 4 7 1013.1 1013.1 0.0
21/12:00pm 27.0 29.5 19.1 62 5.1 SE 4 7 2 4 1013.6 1013.6 0.0
21/11:30am 26.9 29.0 19.3 63 4.9 ENE 7 15 4 8 1014.0 1014.0 0.0
21/11:00am 26.7 28.9 19.6 65 4.6 NE 7 13 4 7 1014.1 1014.1 0.0
21/10:30am 26.1 28.3 19.7 68 4.1 ENE 7 11 4 6 1014.5 1014.5 0.0
21/10:00am 25.9 28.4 19.8 69 4.0 ENE 6 13 3 7 1014.6 1014.6 0.0
21/09:30am 25.0 27.8 19.6 72 3.5 ESE 4 6 2 3 1014.6 1014.6 0.0
21/09:00am 23.8 27.4 20.5 82 2.1 ESE 2 6 1 3 1014.6 1014.6 0.0
21/08:30am 22.1 26.0 21.8 98 0.2 ENE 4 6 2 3 1014.1 1014.1 0.0
21/08:00am 19.5 22.1 19.3 99 0.1 ESE 4 6 2 3 1013.9 1013.9 0.0
21/07:30am 17.2 19.2 16.9 98 0.2 ESE 2 4 1 2 1013.7 1013.7 0.0
21/07:00am 17.1 18.7 16.8 98 0.2 ESE 4 4 2 2 1013.4 1013.4 0.0
21/06:30am 17.7 19.5 17.4 98 0.2 SE 4 4 2 2 1013.3 1013.3 0.0
21/06:00am 17.6 19.4 17.3 98 0.2 ESE 4 6 2 3 1013.2 1013.2 0.0
21/05:30am 17.4 19.1 17.1 98 0.2 E 4 6 2 3 1013.0 1013.0 0.0
21/05:00am 17.6 19.7 17.3 98 0.2 E 2 4 1 2 1013.0 1013.0 0.0
21/04:30am 17.9 20.2 17.6 98 0.2 ESE 2 4 1 2 1013.0 1013.0 0.0
21/04:00am 17.8 20.0 17.5 98 0.2 SE 2 4 1 2 1013.0 1013.0 0.0
21/03:30am 17.7 19.5 17.4 98 0.2 ESE 4 6 2 3 1013.1 1013.1 0.0
21/03:00am 18.0 20.3 17.7 98 0.2 SE 2 4 1 2 1013.2 1013.2 0.0
21/02:30am 18.2 20.2 17.9 98 0.2 ESE 4 6 2 3 1013.2 1013.2 0.0
21/02:00am 18.6 20.8 18.3 98 0.2 SE 4 6 2 3 1013.5 1013.5 0.0
21/01:30am 18.0 19.9 17.7 98 0.2 SE 4 4 2 2 1013.7 1013.7 0.0
21/01:00am 17.4 19.8 17.1 98 0.2 CALM 0 0 0 0 1013.7 1013.7 0.0
21/12:30am 17.6 20.1 17.3 98 0.2 CALM 0 0 0 0 1013.7 1013.7 0.0
21/12:00am 17.4 19.8 17.1 98 0.2 CALM 0 2 0 1 1013.5 1013.5 0.0
 
Date/Time
CST
Temp
°C
App
Temp
°C
Dew
Point
°C
Rel
Hum
%
Delta-T
°C
Wind Press
QNH
hPa
Press
MSL
hPa
Rain since
9am
mm
Dir  Spd
km/h
Gust
km/h
Spd
kts
Gust
kts
20/11:30pm 18.1 19.7 17.8 98 0.2 ESE 6 7 3 4 1013.3 1013.3 0.0
20/11:00pm 17.3 18.9 17.0 98 0.2 E 4 6 2 3 1013.1 1013.1 0.0
20/10:30pm 17.9 20.5 17.6 98 0.2 CALM 0 0 0 0 1013.1 1013.1 0.0
20/10:00pm 17.9 20.5 17.6 98 0.2 CALM 0 0 0 0 1012.8 1012.8 0.0
20/09:30pm 17.8 20.3 17.2 96 0.4 CALM 0 6 0 3 1012.4 1012.4 0.0
20/09:00pm 18.7 21.6 18.2 97 0.3 CALM 0 0 0 0 1012.5 1012.5 0.0
20/08:30pm 19.1 21.6 18.1 94 0.6 NNE 2 2 1 1 1012.2 1012.2 0.0
20/08:00pm 19.7 22.6 18.2 91 0.9 CALM 0 0 0 0 1011.9 1011.9 0.0
20/07:30pm 20.7 23.8 18.6 88 1.3 CALM 0 0 0 0 1011.6 1011.6 0.0
20/07:00pm 22.0 25.3 19.2 84 1.8 CALM 0 0 0 0 1011.5 1011.5 0.0
20/06:30pm 24.4 27.2 19.7 75 3.0 NNW 4 6 2 3 1011.3 1011.3 0.0
20/06:00pm 25.8 28.8 20.1 71 3.7 NNW 4 7 2 4 1011.3 1011.3 0.0
20/05:30pm 26.1 28.2 20.2 70 3.8 N 9 13 5 7 1011.0 1011.0 0.0
20/05:00pm 26.9 29.7 21.6 72 3.5 NNW 9 17 5 9 1010.8 1010.8 0.0
20/04:30pm 26.8 29.1 21.3 72 3.7 N 11 19 6 10 1010.9 1010.9 0.0
20/04:00pm 27.2 29.8 21.2 69 4.0 N 9 17 5 9 1011.0 1011.0 0.0
20/03:30pm 28.0 30.9 21.8 69 4.2 NNW 9 19 5 10 1011.0 1011.0 0.0
20/03:00pm 27.0 28.8 21.1 70 3.9 N 13 22 7 12 1011.4 1011.4 0.0
20/02:30pm 27.3 29.2 20.6 67 4.4 NNW 11 20 6 11 1011.8 1011.8 0.0
20/02:00pm 27.6 29.4 21.2 68 4.3 N 13 22 7 12 1012.4 1012.4 0.0
20/01:30pm 27.7 29.2 20.5 65 4.7 N 13 20 7 11 1012.8 1012.8 0.0
20/01:00pm 27.9 29.4 19.7 61 5.3 NNE 11 20 6 11 1013.4 1013.4 0.0
20/12:30pm 28.8 30.4 19.1 55 6.3 NE 9 17 5 9 1014.0 1014.0 0.0
20/12:00pm 28.4 30.2 19.6 59 5.7 NE 9 15 5 8 1014.7 1014.7 0.0
20/11:30am 27.3 29.0 19.4 62 5.1 ENE 9 17 5 9 1015.1 1015.1 0.0
20/11:00am 26.7 28.8 19.3 64 4.8 NE 7 13 4 7 1015.3 1015.3 0.0
20/10:30am 26.5 28.4 18.9 63 4.9 E 7 11 4 6 1015.4 1015.4 0.0
20/10:00am 25.8 27.7 18.5 64 4.6 E 6 7 3 4 1015.5 1015.5 0.0
20/09:30am 24.8 27.0 18.3 67 4.1 ESE 4 9 2 5 1015.5 1015.5 0.0
20/09:00am 23.4 25.2 18.3 73 3.2 ESE 6 7 3 4 1015.5 1015.5 0.0
20/08:30am 21.7 24.3 19.3 86 1.5 ESE 4 6 2 3 1015.3 1015.3 0.0
20/08:00am 18.3 21.1 18.0 98 0.2 CALM 0 0 0 0 1015.0 1015.0 0.0
20/07:30am 17.0 18.5 16.7 98 0.2 ESE 4 4 2 2 1014.7 1014.7 0.0
20/07:00am 17.1 18.7 16.8 98 0.2 ESE 4 6 2 3 1014.4 1014.4 0.0
20/06:30am 17.4 19.1 17.1 98 0.2 ESE 4 6 2 3 1014.2 1014.2 0.0
20/06:00am 17.1 18.7 16.8 98 0.2 ESE 4 6 2 3 1014.0 1014.0 0.0
20/05:30am 16.8 19.0 16.5 98 0.2 CALM 0 2 0 1 1013.7 1013.7 0.0
20/05:00am 16.6 18.3 16.3 98 0.2 SE 2 4 1 2 1013.5 1013.5 0.0
20/04:30am 16.4 18.0 15.9 97 0.3 SE 2 2 1 1 1013.4 1013.4 0.0
20/04:00am 16.5 18.1 15.9 96 0.4 SE 2 2 1 1 1013.4 1013.4 0.0
20/03:30am 17.1 19.0 16.6 97 0.3 ESE 2 4 1 2 1013.3 1013.3 0.0
20/03:00am 17.0 19.2 16.4 96 0.4 CALM 0 0 0 0 1013.4 1013.4 0.0
20/02:30am 17.1 19.1 16.1 94 0.6 CALM 0 2 0 1 1013.7 1013.7 0.0
20/02:00am 17.9 19.7 17.4 97 0.3 SE 4 6 2 3 1013.9 1013.9 0.0
20/01:30am 16.8 18.8 16.0 95 0.5 CALM 0 4 0 2 1014.1 1014.1 0.0
20/01:00am 16.9 18.9 15.9 94 0.6 CALM 0 0 0 0 1014.5 1014.5 0.0
20/12:30am 17.4 19.6 16.4 94 0.6 CALM 0 0 0 0 1014.5 1014.5 0.0
20/12:00am 17.7 19.6 16.7 94 0.6 SSE 2 4 1 2 1014.5 1014.5 0.0
 
Date/Time
CST
Temp
°C
App
Temp
°C
Dew
Point
°C
Rel
Hum
%
Delta-T
°C
Wind Press
QNH
hPa
Press
MSL
hPa
Rain since
9am
mm
Dir  Spd
km/h
Gust
km/h
Spd
kts
Gust
kts
19/11:30pm 18.3 20.3 17.0 92 0.8 SE 2 4 1 2 1014.5 1014.5 0.0
19/11:00pm 18.3 20.3 17.0 92 0.8 SE 2 4 1 2 1014.6 1014.6 0.0
19/10:30pm 18.1 19.6 16.6 91 0.9 SE 4 4 2 2 1014.3 1014.3 0.0
19/10:00pm 18.0 20.1 16.3 90 1.0 CALM 0 0 0 0 1014.1 1014.1 0.0
19/09:30pm 18.1 19.7 15.9 87 1.3 E 2 4 1 2 1013.8 1013.8 0.0
19/09:00pm 18.2 19.0 14.9 81 1.9 ENE 4 6 2 3 1013.5 1013.5 0.0
19/08:30pm 19.1 20.5 15.4 79 2.2 NE 2 4 1 2 1013.0 1013.0 0.0
19/08:00pm 20.1 21.5 15.3 74 2.8 NE 2 6 1 3 1012.6 1012.6 0.0
19/07:30pm 21.7 22.7 15.3 67 3.8 NNE 4 6 2 3 1012.2 1012.2 0.0
19/07:00pm 23.3 24.6 16.1 64 4.4 NNE 4 7 2 4 1011.9 1011.9 0.0
19/06:30pm 24.6 25.4 16.3 60 5.1 NNE 7 13 4 7 1011.6 1011.6 0.0
19/06:00pm 25.7 26.1 16.3 56 5.8 NNE 9 17 5 9 1011.5 1011.5 0.0
19/05:30pm 26.4 25.9 15.8 52 6.5 NNE 13 24 7 13 1011.1 1011.1 0.0
19/05:00pm 27.0 26.2 16.0 51 6.8 NNE 15 24 8 13 1011.0 1011.0 0.0
19/04:30pm 27.3 26.9 16.3 51 6.8 NNE 13 28 7 15 1010.9 1010.9 0.0
19/04:00pm 27.4 26.3 16.4 51 6.8 NNE 17 28 9 15 1010.8 1010.8 0.0
19/03:30pm 27.7 26.4 15.7 48 7.4 NNE 17 28 9 15 1010.9 1010.9 0.0
19/03:00pm 28.0 27.8 17.5 52 6.6 NNE 15 24 8 13 1011.1 1011.1 0.0
19/02:30pm 29.3 29.4 16.5 46 8.0 N 11 24 6 13 1011.3 1011.3 0.0
19/02:00pm 28.4 28.3 17.0 50 7.1 NNW 13 20 7 11 1011.7 1011.7 0.0
19/01:30pm 30.8 29.3 10.7 29 11.5 ENE 9 15 5 8 1012.2 1012.2 0.0
19/01:00pm 30.5 28.9 11.5 31 11.0 NE 11 24 6 13 1012.5 1012.5 0.0
19/12:30pm 29.6 27.8 12.1 34 10.2 E 13 19 7 10 1013.0 1013.0 0.0
19/12:00pm 29.2 28.2 13.4 38 9.4 E 11 19 6 10 1013.4 1013.4 0.0
19/11:30am 27.3 27.0 14.3 45 7.8 ESE 9 15 5 8 1014.0 1014.0 0.0
19/11:00am 27.1 26.7 15.1 47 7.3 E 11 17 6 9 1014.4 1014.4 0.0
19/10:30am 26.2 26.0 15.6 52 6.4 E 11 19 6 10 1014.7 1014.7 0.0
19/10:00am 25.3 25.7 16.2 57 5.6 E 9 19 5 10 1015.0 1015.0 0.0
19/09:30am 23.8 25.3 18.0 70 3.6 ESE 7 13 4 7 1015.1 1015.1 0.0
19/09:00am 22.5 24.0 18.1 76 2.7 ESE 7 13 4 7 1015.2 1015.2 0.0
19/08:30am 21.3 23.1 18.3 83 1.9 ESE 6 9 3 5 1014.8 1014.8 0.0
19/08:00am 17.6 19.7 17.3 98 0.2 ESE 2 4 1 2 1014.3 1014.3 0.0
19/07:30am 16.0 17.4 15.4 96 0.3 ESE 2 4 1 2 1013.9 1013.9 0.0
19/07:00am 16.5 18.1 15.9 96 0.4 ESE 2 4 1 2 1013.8 1013.8 0.0
19/06:30am 16.9 18.4 15.6 92 0.8 ESE 2 2 1 1 1013.5 1013.5 0.0
19/06:00am 18.3 19.7 16.5 89 1.1 ESE 4 6 2 3 1013.4 1013.4 0.0
19/05:30am 18.5 20.0 16.7 89 1.1 ESE 4 7 2 4 1013.3 1013.3 0.0
19/05:00am 18.0 18.9 16.2 89 1.1 ESE 6 7 3 4 1013.1 1013.1 0.0
19/04:30am 18.1 19.5 16.3 89 1.1 ESE 4 7 2 4 1013.1 1013.1 0.0
19/04:00am 17.9 19.4 15.7 87 1.3 SE 2 6 1 3 1013.0 1013.0 0.0
19/03:30am 17.9 19.0 15.5 86 1.4 SE 4 7 2 4 1012.9 1012.9 0.0
19/03:00am 17.3 18.3 14.4 83 1.7 SE 2 4 1 2 1013.1 1013.1 0.0
19/02:30am 18.7 19.6 15.2 80 2.0 ESE 4 7 2 4 1013.3 1013.3 0.0
19/02:00am 17.2 18.6 15.5 90 1.0 SE 2 6 1 3 1013.5 1013.5 0.0
19/01:30am 16.7 17.9 14.9 89 1.0 ESE 2 4 1 2 1013.5 1013.5 0.0
19/01:00am 16.8 17.9 14.6 87 1.3 ESE 2 4 1 2 1013.6 1013.6 0.0
19/12:30am 17.8 19.0 14.9 83 1.7 SE 2 4 1 2 1013.6 1013.6 0.0
19/12:00am 19.0 20.2 16.0 83 1.8 SSE 4 6 2 3 1013.7 1013.7 0.0
 
Date/Time
CST
Temp
°C
App
Temp
°C
Dew
Point
°C
Rel
Hum
%
Delta-T
°C
Wind Press
QNH
hPa
Press
MSL
hPa
Rain since
9am
mm
Dir  Spd
km/h
Gust
km/h
Spd
kts
Gust
kts
18/11:30pm 19.4 21.1 16.2 82 1.9 SSE 2 4 1 2 1013.9 1013.9 0.0
18/11:00pm 19.9 21.6 16.2 79 2.2 SE 2 4 1 2 1013.9 1013.9 0.0
18/10:30pm 20.4 21.8 16.4 78 2.4 E 4 6 2 3 1013.8 1013.8 0.0

Other formats

Comma delimited format used in spreadsheet applications
http://www.bom.gov.au/fwo/IDD60801/IDD60801.94116.axf

JavaScript Object Notation format (JSON) in row-major order
http://www.bom.gov.au/fwo/IDD60801/IDD60801.94116.json

Data quality

Most of these data are generated automatically and are frequently updated. Quality checks on data are not normally performed. It is possible for incorrect values to appear. Refer to information at About Latest Weather Observations and please check the disclaimer before using these data.